Terminal Aerodrome Forecast
Issued by NWS

Home | Current Version | Previous Version | Text Only | Print | Product List | Glossary On
Versions: 1 2 3 4 5 6 7 8 9 10 11 12 13 14 15
000
FTUS45 KABQ 201100 RRA
TAFROW
TAF
KROW 201141Z 2012/2112 21005KT P6SM SCT080 BKN200
     FM201400 28008KT P6SM BKN100
     FM201900 26012G22KT P6SM BKN150
     FM210100 24009KT P6SM BKN150=

USA.gov is the U.S. government's official web portal to all federal, state and local government web resources and services.